createdAt,value
2017-08-17T00:02:01.465Z,18.00
2017-08-17T00:04:29.112Z,17.90
2017-08-17T00:06:56.786Z,17.90
2017-08-17T00:09:24.809Z,17.90
2017-08-17T00:11:52.455Z,17.90
2017-08-17T00:14:20.142Z,17.90
2017-08-17T00:16:47.847Z,17.90
2017-08-17T00:19:15.490Z,18.00
2017-08-17T00:21:43.238Z,18.00
2017-08-17T00:24:10.862Z,18.00
2017-08-17T00:26:38.490Z,18.00
2017-08-17T00:29:06.278Z,18.00
2017-08-17T00:31:34.025Z,18.00
2017-08-17T00:34:01.669Z,18.00
2017-08-17T00:36:29.374Z,18.00
2017-08-17T00:38:57.068Z,17.90
2017-08-17T00:41:24.739Z,17.90
2017-08-17T00:43:52.863Z,18.00
2017-08-17T00:46:20.508Z,18.00
2017-08-17T00:48:48.255Z,18.00
2017-08-17T00:51:16.031Z,17.90
2017-08-17T00:53:44.158Z,17.90
2017-08-17T00:56:11.830Z,17.90
2017-08-17T00:58:39.931Z,17.90
2017-08-17T01:01:07.581Z,17.90
2017-08-17T01:03:35.270Z,17.80
2017-08-17T01:06:03.104Z,17.80
2017-08-17T01:08:30.796Z,17.80
2017-08-17T01:10:58.494Z,17.70
2017-08-17T01:13:26.193Z,17.70
2017-08-17T01:15:53.987Z,17.60
2017-08-17T01:18:21.740Z,17.40
2017-08-17T01:20:49.584Z,17.40
2017-08-17T01:23:17.332Z,17.40
2017-08-17T01:25:45.129Z,17.40
2017-08-17T01:28:12.928Z,17.30
2017-08-17T01:30:40.626Z,17.30
2017-08-17T01:33:08.425Z,17.40
2017-08-17T01:35:36.275Z,17.40
2017-08-17T01:38:03.990Z,17.40
2017-08-17T01:40:31.693Z,17.40
2017-08-17T01:42:59.926Z,17.30
2017-08-17T01:45:27.629Z,17.30
2017-08-17T01:47:55.419Z,17.30
2017-08-17T01:50:23.269Z,17.20
2017-08-17T01:52:51.017Z,17.20
2017-08-17T01:55:18.722Z,17.30
2017-08-17T01:57:46.613Z,17.30
2017-08-17T02:00:14.362Z,17.30
2017-08-17T02:02:42.107Z,17.20
2017-08-17T02:05:09.801Z,17.10
2017-08-17T02:07:37.501Z,17.00
2017-08-17T02:10:05.121Z,16.90
2017-08-17T02:12:32.810Z,17.00
2017-08-17T02:15:00.538Z,17.00
2017-08-17T02:17:28.165Z,17.00
2017-08-17T02:19:55.843Z,17.00
2017-08-17T02:22:23.575Z,16.90
2017-08-17T02:24:51.219Z,16.80
2017-08-17T02:27:18.966Z,16.80
2017-08-17T02:29:46.610Z,16.80
2017-08-17T02:32:14.257Z,16.80
2017-08-17T02:34:41.946Z,16.80
2017-08-17T02:37:09.573Z,16.70
2017-08-17T02:39:37.706Z,16.40
2017-08-17T02:42:05.454Z,16.40
2017-08-17T02:44:33.098Z,16.30
2017-08-17T02:47:00.741Z,16.30
2017-08-17T02:49:28.489Z,16.40
2017-08-17T02:51:56.170Z,16.50
2017-08-17T02:54:23.841Z,16.50
2017-08-17T02:56:51.547Z,16.50
2017-08-17T02:59:19.277Z,16.40
2017-08-17T03:01:47.019Z,16.40
2017-08-17T03:04:14.767Z,16.40
2017-08-17T03:06:42.514Z,16.50
2017-08-17T03:09:10.460Z,16.50
2017-08-17T03:11:38.216Z,16.50
2017-08-17T03:14:05.861Z,16.50
2017-08-17T03:16:33.509Z,16.50
2017-08-17T03:19:01.252Z,16.40
2017-08-17T03:21:28.874Z,16.30
2017-08-17T03:23:56.541Z,16.30
2017-08-17T03:26:24.288Z,16.40
2017-08-17T03:28:51.933Z,16.40
2017-08-17T03:31:19.576Z,16.40
2017-08-17T03:33:47.355Z,16.50
2017-08-17T03:36:15.389Z,16.60
2017-08-17T03:38:43.128Z,16.60
2017-08-17T03:41:10.875Z,16.60
2017-08-17T03:43:38.521Z,16.60
2017-08-17T03:46:06.165Z,16.60
2017-08-17T03:48:33.842Z,16.50
2017-08-17T03:51:01.968Z,16.30
2017-08-17T03:53:29.717Z,16.30
2017-08-17T03:55:57.411Z,16.20
2017-08-17T03:58:25.042Z,16.30
2017-08-17T04:00:53.161Z,16.30
2017-08-17T04:03:20.838Z,16.30
2017-08-17T04:05:48.962Z,16.30
2017-08-17T04:08:16.626Z,16.30
2017-08-17T04:10:44.323Z,16.40
2017-08-17T04:13:11.949Z,16.30
2017-08-17T04:15:39.648Z,16.40
2017-08-17T04:18:07.350Z,16.40
2017-08-17T04:20:35.038Z,16.40
2017-08-17T04:23:02.785Z,16.40
2017-08-17T04:25:30.477Z,16.40
2017-08-17T04:27:58.177Z,16.30
2017-08-17T04:30:25.827Z,16.30
2017-08-17T04:32:53.671Z,16.10
2017-08-17T04:35:21.315Z,16.20
2017-08-17T04:37:49.063Z,16.30
2017-08-17T04:40:16.746Z,16.40
2017-08-17T04:42:44.772Z,16.40
2017-08-17T04:45:12.418Z,16.40
2017-08-17T04:47:40.155Z,16.40
2017-08-17T04:50:07.802Z,16.40
2017-08-17T04:52:35.438Z,16.40
2017-08-17T04:55:03.203Z,16.50
2017-08-17T04:57:48.553Z,16.60
2017-08-17T05:00:16.250Z,16.80
2017-08-17T05:02:43.942Z,16.90
2017-08-17T05:05:11.571Z,17.00
2017-08-17T05:07:39.338Z,17.10
2017-08-17T05:10:07.085Z,17.20
2017-08-17T05:12:34.832Z,17.40
2017-08-17T05:15:02.529Z,17.50
2017-08-17T05:17:30.223Z,17.80
2017-08-17T05:19:57.862Z,18.00
2017-08-17T05:22:25.538Z,18.20
2017-08-17T05:24:53.685Z,18.40
2017-08-17T05:27:21.417Z,18.30
2017-08-17T05:29:49.106Z,18.30
2017-08-17T05:32:16.808Z,18.30
2017-08-17T05:34:44.454Z,18.30
2017-08-17T05:37:12.139Z,18.30
2017-08-17T05:39:40.254Z,18.30
2017-08-17T05:42:07.904Z,18.30
2017-08-17T05:44:35.593Z,18.40
2017-08-17T05:47:03.301Z,18.60
2017-08-17T05:49:31.044Z,18.60
2017-08-17T05:51:58.826Z,18.70
2017-08-17T05:54:27.005Z,18.70
2017-08-17T05:56:54.692Z,18.70
2017-08-17T05:59:22.439Z,19.00
2017-08-17T06:01:50.186Z,19.30
2017-08-17T06:04:17.830Z,19.60
2017-08-17T06:06:45.505Z,19.90
2017-08-17T06:09:13.547Z,20.30
2017-08-17T06:11:41.277Z,20.30
2017-08-17T06:14:08.986Z,20.50
2017-08-17T06:16:36.623Z,20.60
2017-08-17T06:19:04.423Z,20.80
2017-08-17T06:21:32.166Z,20.90
2017-08-17T06:24:00.015Z,20.90
2017-08-17T06:26:27.659Z,21.10
2017-08-17T06:28:55.345Z,21.10
2017-08-17T06:31:23.378Z,20.90
2017-08-17T06:33:51.010Z,20.90
2017-08-17T06:36:18.689Z,20.90
2017-08-17T06:38:46.806Z,21.30
2017-08-17T06:41:14.553Z,21.30
2017-08-17T06:43:42.300Z,21.50
2017-08-17T06:46:09.921Z,21.60
2017-08-17T06:48:37.546Z,21.80
2017-08-17T06:51:05.340Z,21.70
2017-08-17T06:53:33.021Z,22.00
2017-08-17T06:56:01.048Z,22.30
2017-08-17T06:58:28.785Z,22.30
2017-08-17T07:00:56.425Z,22.30
2017-08-17T07:03:24.050Z,22.40
2017-08-17T07:05:51.823Z,22.50
2017-08-17T07:08:19.467Z,22.40
2017-08-17T07:10:47.110Z,22.20
2017-08-17T07:13:14.858Z,22.50
2017-08-17T07:15:42.485Z,22.60
2017-08-17T07:18:10.114Z,22.70
2017-08-17T07:20:37.899Z,22.90
2017-08-17T07:23:05.529Z,23.30
2017-08-17T07:25:33.188Z,23.50
2017-08-17T07:28:00.961Z,23.70
2017-08-17T07:30:29.013Z,23.80
2017-08-17T07:32:57.146Z,24.00
2017-08-17T07:35:24.821Z,24.00
2017-08-17T07:37:52.949Z,24.20
2017-08-17T07:40:20.591Z,24.20
2017-08-17T07:42:48.338Z,24.30
2017-08-17T07:45:16.086Z,24.50
2017-08-17T07:47:43.718Z,24.70
2017-08-17T07:50:11.484Z,25.00
2017-08-17T07:52:39.228Z,24.90
2017-08-17T07:55:06.975Z,25.30
2017-08-17T07:57:34.710Z,25.60
2017-08-17T08:00:02.367Z,25.70
2017-08-17T08:02:30.114Z,25.50
2017-08-17T08:04:57.963Z,25.20
2017-08-17T08:07:25.710Z,25.00
2017-08-17T08:09:53.343Z,24.80
2017-08-17T08:12:21.102Z,24.50
2017-08-17T08:14:48.746Z,24.80
2017-08-17T08:17:16.495Z,25.00
2017-08-17T08:19:44.190Z,25.40
2017-08-17T08:22:11.886Z,25.50
2017-08-17T08:24:39.534Z,25.40
2017-08-17T08:27:07.230Z,25.40
2017-08-17T08:29:34.849Z,25.60
2017-08-17T08:32:02.980Z,25.60
2017-08-17T08:34:30.662Z,25.60
2017-08-17T08:36:58.780Z,25.90
2017-08-17T08:39:26.406Z,25.90
2017-08-17T08:41:54.173Z,26.20
2017-08-17T08:44:21.817Z,26.50
2017-08-17T08:46:49.565Z,26.70
2017-08-17T08:49:17.337Z,26.80
2017-08-17T08:51:45.474Z,27.10
2017-08-17T08:54:13.190Z,27.10
2017-08-17T08:56:40.969Z,27.10
2017-08-17T08:59:08.610Z,27.20
2017-08-17T09:01:36.294Z,27.20
2017-08-17T09:04:03.983Z,27.10
2017-08-17T09:06:31.614Z,27.10
2017-08-17T09:08:59.245Z,27.00
2017-08-17T09:11:26.939Z,27.10
2017-08-17T09:13:54.581Z,27.10
2017-08-17T09:16:22.205Z,27.00
2017-08-17T09:18:49.881Z,26.80
2017-08-17T09:21:17.617Z,26.90
2017-08-17T09:23:45.237Z,27.10
2017-08-17T09:26:13.111Z,27.20
2017-08-17T09:28:40.858Z,27.30
2017-08-17T09:31:08.497Z,27.30
2017-08-17T09:33:36.170Z,27.40
2017-08-17T09:36:03.898Z,27.40
2017-08-17T09:38:31.543Z,27.40
2017-08-17T09:40:59.392Z,27.20
2017-08-17T09:43:27.036Z,27.20
2017-08-17T09:45:54.714Z,27.10
2017-08-17T09:48:22.881Z,27.20
2017-08-17T09:50:50.586Z,27.20
2017-08-17T09:53:18.229Z,27.20
2017-08-17T09:55:45.909Z,27.30
2017-08-17T09:58:13.936Z,27.60
2017-08-17T10:00:41.676Z,27.60
2017-08-17T10:03:09.458Z,27.80
2017-08-17T10:05:37.174Z,27.80
2017-08-17T10:08:04.803Z,27.90
2017-08-17T10:10:32.669Z,27.80
2017-08-17T10:13:00.414Z,27.80
2017-08-17T10:15:28.059Z,27.90
2017-08-17T10:17:56.909Z,27.90
2017-08-17T10:20:24.577Z,27.80
2017-08-17T10:22:52.222Z,27.70
2017-08-17T10:25:19.970Z,27.80
2017-08-17T10:27:47.613Z,27.90
2017-08-17T10:30:15.245Z,28.00
2017-08-17T10:32:43.108Z,27.90
2017-08-17T10:35:10.754Z,27.60
2017-08-17T10:37:38.400Z,27.80
2017-08-17T10:40:06.152Z,28.20
2017-08-17T10:42:33.792Z,28.40
2017-08-17T10:45:01.438Z,28.40
2017-08-17T10:47:29.184Z,28.40
2017-08-17T10:49:56.829Z,28.60
2017-08-17T10:52:24.451Z,28.80
2017-08-17T10:54:52.220Z,28.90
2017-08-17T10:57:19.865Z,29.00
2017-08-17T10:59:47.509Z,29.00
2017-08-17T11:02:15.258Z,29.10
2017-08-17T11:04:42.894Z,29.20
2017-08-17T11:07:10.547Z,29.20
2017-08-17T11:09:38.299Z,29.20
2017-08-17T11:12:06.045Z,29.40
2017-08-17T11:14:33.689Z,29.20
2017-08-17T11:17:01.374Z,29.00
2017-08-17T11:19:29.081Z,29.20
2017-08-17T11:21:56.714Z,29.40
2017-08-17T11:24:24.473Z,29.50
2017-08-17T11:26:52.132Z,29.50
2017-08-17T11:29:19.774Z,29.30
2017-08-17T11:31:47.466Z,29.20
2017-08-17T11:34:15.600Z,29.50
2017-08-17T11:36:43.223Z,29.50
2017-08-17T11:39:10.930Z,29.50
2017-08-17T11:41:39.049Z,29.70
2017-08-17T11:44:06.796Z,29.70
2017-08-17T11:46:34.543Z,30.00
2017-08-17T11:49:02.186Z,30.20
2017-08-17T11:51:29.422Z,30.20
2017-08-17T11:53:57.171Z,30.20
2017-08-17T11:56:24.815Z,30.20
2017-08-17T11:58:52.458Z,30.00
2017-08-17T12:01:20.142Z,29.80
2017-08-17T12:03:48.260Z,29.60
2017-08-17T12:06:15.904Z,29.60
2017-08-17T12:08:43.652Z,29.50
2017-08-17T12:11:11.398Z,29.50
2017-08-17T12:13:39.046Z,29.50
2017-08-17T12:16:06.730Z,29.60
2017-08-17T12:18:34.849Z,29.90
2017-08-17T12:21:02.484Z,29.90
2017-08-17T12:23:30.239Z,29.90
2017-08-17T12:25:57.873Z,29.90
2017-08-17T12:28:25.506Z,30.00
2017-08-17T12:30:53.278Z,30.10
2017-08-17T12:33:20.956Z,30.20
2017-08-17T12:35:49.078Z,30.80
2017-08-17T12:38:16.825Z,30.80
2017-08-17T12:40:44.469Z,30.60
2017-08-17T12:43:12.095Z,30.70
2017-08-17T12:45:39.779Z,30.70
2017-08-17T12:48:07.511Z,30.40
2017-08-17T12:50:35.154Z,30.60
2017-08-17T12:53:02.902Z,30.70
2017-08-17T12:55:30.546Z,30.00
2017-08-17T12:57:58.190Z,29.30
2017-08-17T13:00:25.881Z,28.90
2017-08-17T13:02:53.514Z,29.00
2017-08-17T13:05:21.229Z,28.70
2017-08-17T13:07:48.975Z,28.70
2017-08-17T13:10:16.720Z,28.80
2017-08-17T13:12:44.365Z,28.90
2017-08-17T13:15:12.114Z,29.20
2017-08-17T13:17:39.760Z,29.50
2017-08-17T13:20:07.405Z,29.60
2017-08-17T13:22:35.153Z,29.90
2017-08-17T13:25:02.796Z,30.00
2017-08-17T13:27:30.418Z,30.10
2017-08-17T13:29:58.190Z,30.10
2017-08-17T13:32:25.814Z,30.10
2017-08-17T13:34:53.442Z,30.10
2017-08-17T13:37:21.225Z,30.10
2017-08-17T13:39:48.857Z,30.00
2017-08-17T13:42:16.515Z,29.70
2017-08-17T13:44:44.364Z,29.60
2017-08-17T13:47:12.010Z,29.70
2017-08-17T13:49:39.646Z,30.00
2017-08-17T13:52:07.333Z,30.00
2017-08-17T13:54:35.459Z,30.00
2017-08-17T13:57:03.102Z,30.00
2017-08-17T13:59:30.850Z,29.90
2017-08-17T14:01:58.495Z,29.90
2017-08-17T14:04:26.139Z,30.10
2017-08-17T14:06:53.822Z,30.20
2017-08-17T14:09:21.941Z,30.50
2017-08-17T14:11:49.585Z,30.50
2017-08-17T14:14:17.333Z,30.50
2017-08-17T14:16:44.977Z,30.60
2017-08-17T14:19:49.379Z,30.70
2017-08-17T14:22:17.025Z,30.50
2017-08-17T14:24:44.673Z,30.30
2017-08-17T14:27:12.418Z,30.00
2017-08-17T14:29:40.169Z,29.60
2017-08-17T14:32:07.916Z,29.50
2017-08-17T14:34:35.597Z,29.60
2017-08-17T14:37:03.306Z,29.50
2017-08-17T14:39:30.950Z,29.60
2017-08-17T14:41:58.698Z,29.60
2017-08-17T14:44:26.345Z,29.60
2017-08-17T14:46:53.986Z,29.50
2017-08-17T14:49:21.734Z,29.50
2017-08-17T14:51:49.379Z,29.40
2017-08-17T14:54:17.126Z,29.40
2017-08-17T14:56:44.861Z,29.30
2017-08-17T14:59:12.507Z,29.20
2017-08-17T15:01:40.194Z,29.20
2017-08-17T15:04:07.886Z,29.30
2017-08-17T15:06:35.560Z,29.40
2017-08-17T15:09:03.305Z,29.40
2017-08-17T15:11:31.052Z,29.50
2017-08-17T15:13:58.800Z,29.60
2017-08-17T15:16:26.522Z,29.50
2017-08-17T15:18:54.293Z,29.60
2017-08-17T15:21:21.937Z,29.80
2017-08-17T15:23:49.581Z,29.80
2017-08-17T15:26:17.360Z,29.70
2017-08-17T15:28:45.077Z,29.90
2017-08-17T15:31:12.715Z,29.90
2017-08-17T15:33:40.390Z,29.70
2017-08-17T15:36:08.116Z,29.70
2017-08-17T15:38:35.760Z,29.70
2017-08-17T15:41:03.442Z,29.70
2017-08-17T15:43:31.153Z,29.50
2017-08-17T15:45:58.799Z,29.40
2017-08-17T15:48:26.545Z,29.40
2017-08-17T15:50:54.293Z,29.40
2017-08-17T15:53:22.041Z,29.50
2017-08-17T15:55:49.727Z,29.50
2017-08-17T15:58:17.430Z,29.40
2017-08-17T16:00:45.075Z,29.50
2017-08-17T16:03:12.758Z,29.40
2017-08-17T16:05:40.673Z,29.30
2017-08-17T16:08:08.312Z,29.20
2017-08-17T16:10:36.066Z,29.00
2017-08-17T16:13:03.716Z,28.90
2017-08-17T16:15:31.345Z,28.70
2017-08-17T16:17:59.103Z,28.50
2017-08-17T16:20:26.851Z,28.40
2017-08-17T16:22:54.482Z,28.30
2017-08-17T16:25:22.345Z,28.30
2017-08-17T16:27:49.989Z,28.30
2017-08-17T16:30:17.633Z,28.30
2017-08-17T16:32:45.463Z,28.30
2017-08-17T16:35:13.128Z,28.30
2017-08-17T16:37:40.765Z,28.40
2017-08-17T16:40:08.523Z,28.30
2017-08-17T16:42:36.159Z,28.20
2017-08-17T16:45:03.812Z,28.00
2017-08-17T16:47:31.560Z,27.90
2017-08-17T16:49:59.194Z,27.90
2017-08-17T16:52:26.848Z,27.80
2017-08-17T16:54:54.534Z,27.60
2017-08-17T16:57:22.240Z,27.40
2017-08-17T16:59:49.884Z,27.30
2017-08-17T17:02:17.666Z,27.20
2017-08-17T17:04:45.380Z,27.00
2017-08-17T17:07:13.024Z,27.00
2017-08-17T17:09:40.777Z,26.90
2017-08-17T17:12:08.419Z,26.70
2017-08-17T17:14:36.063Z,26.60
2017-08-17T17:17:03.811Z,26.50
2017-08-17T17:19:31.559Z,26.40
2017-08-17T17:21:59.305Z,26.30
2017-08-17T17:24:27.114Z,26.30
2017-08-17T17:26:54.800Z,26.30
2017-08-17T17:29:22.550Z,26.30
2017-08-17T17:31:50.257Z,26.30
2017-08-17T17:34:17.940Z,26.30
2017-08-17T17:36:45.637Z,26.20
2017-08-17T17:39:13.346Z,26.20
2017-08-17T17:41:41.038Z,26.10
2017-08-17T17:44:08.670Z,26.10
2017-08-17T17:46:36.472Z,26.00
2017-08-17T17:49:04.113Z,25.90
2017-08-17T17:51:31.864Z,25.90
2017-08-17T17:53:59.572Z,25.80
2017-08-17T17:56:27.218Z,25.80
2017-08-17T17:58:54.867Z,25.70
2017-08-17T18:01:22.577Z,25.60
2017-08-17T18:03:50.295Z,25.50
2017-08-17T18:06:18.039Z,25.40
2017-08-17T18:08:45.788Z,25.30
2017-08-17T18:11:13.431Z,25.10
2017-08-17T18:13:41.159Z,25.10
2017-08-17T18:16:08.928Z,25.00
2017-08-17T18:18:36.577Z,25.00
2017-08-17T18:21:04.253Z,24.90
2017-08-17T18:23:31.966Z,24.80
2017-08-17T18:25:59.713Z,24.70
2017-08-17T18:28:27.463Z,24.60
2017-08-17T18:30:55.206Z,24.50
2017-08-17T18:33:22.857Z,24.40
2017-08-17T18:35:50.560Z,24.40
2017-08-17T18:38:18.279Z,24.40
2017-08-17T18:40:45.990Z,24.40
2017-08-17T18:43:13.737Z,24.40
2017-08-17T18:45:41.418Z,24.40
2017-08-17T18:48:09.131Z,24.20
2017-08-17T18:50:36.776Z,24.10
2017-08-17T18:53:04.474Z,24.10
2017-08-17T18:55:32.171Z,24.10
2017-08-17T18:57:59.830Z,24.10
2017-08-17T19:00:27.544Z,24.10
2017-08-17T19:02:55.184Z,24.20
2017-08-17T19:05:22.831Z,24.20
2017-08-17T19:07:50.525Z,24.20
2017-08-17T19:10:18.241Z,24.10
2017-08-17T19:12:45.988Z,24.10
2017-08-17T19:15:13.734Z,24.00
2017-08-17T19:17:41.482Z,24.00
2017-08-17T19:20:09.232Z,23.90
2017-08-17T19:22:36.985Z,23.90
2017-08-17T19:25:04.728Z,23.90
2017-08-17T19:27:32.475Z,23.80
2017-08-17T19:30:00.221Z,23.70
2017-08-17T19:32:27.980Z,23.70
2017-08-17T19:34:55.642Z,23.60
2017-08-17T19:37:23.463Z,23.50
2017-08-17T19:39:51.210Z,23.30
2017-08-17T19:42:18.958Z,23.20
2017-08-17T19:44:46.706Z,23.20
2017-08-17T19:47:14.554Z,23.20
2017-08-17T19:49:42.227Z,23.20
2017-08-17T19:52:09.969Z,23.20
2017-08-17T19:54:37.606Z,23.20
2017-08-17T19:57:05.255Z,23.20
2017-08-17T19:59:32.954Z,23.30
2017-08-17T20:02:00.628Z,23.30
2017-08-17T20:04:28.376Z,23.30
2017-08-17T20:06:56.071Z,23.30
2017-08-17T20:09:23.728Z,23.30
2017-08-17T20:11:51.414Z,23.30
2017-08-17T20:14:19.162Z,23.20
2017-08-17T20:16:46.806Z,23.10
2017-08-17T20:19:14.488Z,23.10
2017-08-17T20:21:42.173Z,23.00
2017-08-17T20:24:09.813Z,22.90
2017-08-17T20:26:37.493Z,22.90
2017-08-17T20:29:05.178Z,22.80
2017-08-17T20:31:32.826Z,22.70
2017-08-17T20:34:00.457Z,22.60
2017-08-17T20:36:28.579Z,22.60
2017-08-17T20:38:56.233Z,22.50
2017-08-17T20:41:23.975Z,22.50
2017-08-17T20:43:51.678Z,22.50
2017-08-17T20:46:19.306Z,22.50
2017-08-17T20:48:47.008Z,22.50
2017-08-17T20:51:14.714Z,22.50
2017-08-17T20:53:42.413Z,22.40
2017-08-17T20:56:10.123Z,22.30
2017-08-17T20:58:37.999Z,22.20
2017-08-17T21:01:05.651Z,22.10
2017-08-17T21:03:33.298Z,22.10
2017-08-17T21:06:01.006Z,22.10
2017-08-17T21:08:28.649Z,22.00
2017-08-17T21:10:56.288Z,21.90
2017-08-17T21:13:24.077Z,21.70
2017-08-17T21:15:51.746Z,21.60
2017-08-17T21:18:19.378Z,21.60
2017-08-17T21:20:47.110Z,21.70
2017-08-17T21:23:14.753Z,21.80
2017-08-17T21:25:42.387Z,21.80
2017-08-17T21:28:10.147Z,21.90
2017-08-17T21:30:37.774Z,21.90
2017-08-17T21:33:05.438Z,21.90
2017-08-17T21:35:33.185Z,21.90
2017-08-17T21:38:00.828Z,21.80
2017-08-17T21:40:28.473Z,21.80
2017-08-17T21:42:56.170Z,21.70
2017-08-17T21:45:23.867Z,21.60
2017-08-17T21:47:51.612Z,21.40
2017-08-17T21:50:19.360Z,21.40
2017-08-17T21:52:46.995Z,21.40
2017-08-17T21:55:14.649Z,21.40
2017-08-17T21:57:42.397Z,21.30
2017-08-17T22:00:10.145Z,21.40
2017-08-17T22:02:37.791Z,21.50
2017-08-17T22:05:05.846Z,21.50
2017-08-17T22:07:33.592Z,21.50
2017-08-17T22:10:01.340Z,21.50
2017-08-17T22:12:29.091Z,21.50
2017-08-17T22:14:56.835Z,21.50
2017-08-17T22:17:24.478Z,21.50
2017-08-17T22:19:52.149Z,21.40
2017-08-17T22:22:19.871Z,21.30
2017-08-17T22:24:47.617Z,21.20
2017-08-17T22:27:15.365Z,21.20
2017-08-17T22:29:42.999Z,21.10
2017-08-17T22:32:10.635Z,21.10
2017-08-17T22:34:38.319Z,21.00
2017-08-17T22:37:05.982Z,21.00
2017-08-17T22:39:33.696Z,21.10
2017-08-17T22:42:01.394Z,21.10
2017-08-17T22:44:29.022Z,21.10
2017-08-17T22:46:56.730Z,21.00
2017-08-17T22:49:24.450Z,21.00
2017-08-17T22:51:52.078Z,21.00
2017-08-17T22:54:19.766Z,21.00
2017-08-17T22:56:47.459Z,21.00
2017-08-17T22:59:15.159Z,21.10
2017-08-17T23:01:42.815Z,21.00
2017-08-17T23:04:10.522Z,21.00
2017-08-17T23:06:38.170Z,20.90
2017-08-17T23:09:05.820Z,20.90
2017-08-17T23:11:33.693Z,20.90
2017-08-17T23:14:01.443Z,20.90
2017-08-17T23:16:29.085Z,20.80
2017-08-17T23:18:56.831Z,20.70
2017-08-17T23:21:24.479Z,20.80
2017-08-17T23:23:52.115Z,20.80
2017-08-17T23:26:19.869Z,20.70
2017-08-17T23:28:47.511Z,20.60
2017-08-17T23:31:15.154Z,20.50
2017-08-17T23:33:42.850Z,20.50
2017-08-17T23:36:10.477Z,20.50
2017-08-17T23:38:38.299Z,20.30
2017-08-17T23:41:06.147Z,20.30
2017-08-17T23:43:33.795Z,20.20
2017-08-17T23:46:01.439Z,20.30
2017-08-17T23:48:29.150Z,20.20
2017-08-17T23:50:56.831Z,20.30
2017-08-17T23:53:24.473Z,20.30
2017-08-17T23:55:52.163Z,20.30
2017-08-17T23:58:19.866Z,20.40
